Time;durP1;ratioP1;P1;durP2;ratioP2;P2;SDS_P1;SDS_P2;PMS_P1;PMS_P2;Temp;Humidity;BMP_temperature;BMP_pressure;BME280_temperature;BME280_humidity;BME280_pressure;Samples;Min_cycle;Max_cycle;Signal;HPM_P1;HPM_P2
2022/02/10 00:14:42;;;;;;;9.30;4.03;;;5.70;99.90;;;4.88;100.00;98219.19;5058326;28;20041;-67
2022/02/10 00:20:10;;;;;;;12.65;4.75;;;5.70;99.90;;;4.91;100.00;98208.88;5059781;28;20045;-67
2022/02/10 00:22:31;;;;;;;13.48;4.68;;;5.60;99.90;;;4.88;100.00;98209.75;5056480;28;20067;-67
2022/02/10 00:36:08;;;;;;;13.35;4.65;;;5.60;99.90;;;5.16;100.00;98194.88;5058604;28;20087;-67
2022/02/10 00:38:40;;;;;;;10.50;3.78;;;5.60;99.90;;;5.09;100.00;98184.69;5059182;28;20574;-67
2022/02/10 00:41:10;;;;;;;10.02;4.20;;;5.70;99.90;;;5.08;100.00;98188.97;5059602;28;20557;-67
2022/02/10 00:43:37;;;;;;;10.05;3.85;;;5.70;99.90;;;5.18;100.00;98189.72;5056026;28;20470;-67
2022/02/10 00:46:06;;;;;;;8.52;3.40;;;5.70;99.90;;;5.13;100.00;98188.91;5060688;28;20094;-67
2022/02/10 00:48:33;;;;;;;13.25;4.00;;;5.70;99.90;;;5.12;100.00;98174.34;5059305;28;20151;-67
2022/02/10 00:51:01;;;;;;;12.35;4.15;;;5.70;99.90;;;5.03;100.00;98189.00;5055997;28;20041;-67
2022/02/10 00:53:31;;;;;;;7.78;3.38;;;5.70;99.90;;;5.01;100.00;98190.75;5056491;28;20049;-67
2022/02/10 00:55:58;;;;;;;13.00;4.68;;;5.70;99.90;;;4.90;100.00;98187.41;5058773;28;20048;-67
2022/02/10 00:58:31;;;;;;;9.32;4.47;;;5.60;99.90;;;4.94;100.00;98191.66;5055492;28;20147;-67
2022/02/10 01:31:03;;;;;;;9.85;3.58;;;5.60;99.90;;;4.92;100.00;98144.53;5044502;28;20049;-67
2022/02/10 01:33:32;;;;;;;10.95;3.15;;;5.50;99.90;;;4.94;100.00;98144.53;5039839;28;20525;-67
2022/02/10 01:35:59;;;;;;;13.07;4.15;;;5.50;99.90;;;4.90;100.00;98148.84;5045751;28;20084;-67
2022/02/10 01:38:26;;;;;;;9.55;3.03;;;5.50;99.90;;;5.00;100.00;98142.75;5042628;28;20160;-67
2022/02/10 01:41:25;;;;;;;14.07;3.20;;;5.50;99.90;;;4.93;100.00;98148.81;5042638;28;20085;-67
2022/02/10 01:58:04;;;;;;;9.82;3.33;;;5.40;99.90;;;4.83;100.00;98139.47;5043236;28;20048;-67
2022/02/10 02:03:25;;;;;;;13.10;3.38;;;5.40;99.90;;;4.85;100.00;98149.78;5043316;28;20065;-67
2022/02/10 02:06:00;;;;;;;12.55;3.35;;;5.40;99.90;;;4.96;100.00;98137.66;5043156;28;20064;-67
2022/02/10 02:08:30;;;;;;;13.82;4.18;;;5.50;99.90;;;5.02;100.00;98133.28;5041558;28;20136;-67
2022/02/10 02:11:01;;;;;;;6.57;2.97;;;5.50;99.90;;;4.97;100.00;98126.47;5046517;28;20529;-67
2022/02/10 02:13:28;;;;;;;13.70;3.22;;;5.50;99.90;;;4.85;100.00;98122.31;5040230;28;20139;-67
2022/02/10 02:15:55;;;;;;;10.88;3.22;;;5.50;99.90;;;4.98;100.00;98120.47;5041424;28;20145;-67
2022/02/10 02:18:28;;;;;;;7.75;2.80;;;5.50;99.90;;;4.93;100.00;98137.69;5037118;28;20140;-67
2022/02/10 02:20:56;;;;;;;13.60;3.17;;;5.50;99.90;;;4.87;100.00;98119.75;5039292;28;20069;-67
2022/02/10 02:23:28;;;;;;;9.20;3.28;;;5.50;99.90;;;4.79;100.00;98128.41;5039684;28;20535;-67
2022/02/10 02:26:06;;;;;;;9.20;3.45;;;5.40;99.90;;;4.82;100.00;98124.94;5038405;28;20127;-67
2022/02/10 02:28:41;;;;;;;8.95;3.17;;;5.50;99.90;;;4.73;100.00;98138.75;5039830;28;20128;-67
2022/02/10 02:31:17;;;;;;;11.07;3.70;;;5.40;99.90;;;4.79;100.00;98127.56;5053907;28;20581;-67
2022/02/10 02:34:25;;;;;;;10.25;3.55;;;5.40;99.90;;;4.65;100.00;98145.66;5039743;28;20125;-67
2022/02/10 03:07:46;;;;;;;12.68;4.05;;;5.10;99.90;;;4.35;100.00;98097.97;5035652;28;20483;-67
2022/02/10 03:12:41;;;;;;;11.43;4.15;;;5.00;99.90;;;4.37;100.00;98104.81;5042368;28;20578;-67
2022/02/10 03:15:19;;;;;;;8.65;4.32;;;5.00;99.90;;;4.36;100.00;98110.81;5050854;28;20123;-67
2022/02/10 03:18:15;;;;;;;10.55;3.58;;;4.90;99.90;;;4.40;100.00;98107.38;5038667;28;20141;-67
2022/02/10 04:12:22;;;;;;;10.13;4.03;;;4.70;99.90;;;3.96;100.00;98116.28;5038736;28;20477;-67
2022/02/10 04:15:00;;;;;;;12.98;4.22;;;4.70;99.90;;;3.84;100.00;98108.69;5040737;28;20478;-67
2022/02/10 04:18:57;;;;;;;10.57;4.72;;;4.70;99.90;;;3.83;100.00;98106.09;5036430;28;20045;-67
2022/02/10 04:26:54;;;;;;;12.60;4.28;;;4.60;99.90;;;3.80;100.00;98116.41;5037458;28;20517;-67
2022/02/10 04:29:01;;;;;;;17.42;4.60;;;4.60;99.90;;;3.96;100.00;98094.88;5030626;28;20077;-67
2022/02/10 05:01:08;;;;;;;11.52;4.95;;;4.60;99.90;;;3.77;100.00;98073.63;5042084;28;20053;-67
2022/02/10 05:33:45;;;;;;;16.00;4.65;;;5.00;99.90;;;4.10;100.00;98056.25;5040847;28;20369;-67
2022/02/10 05:36:15;;;;;;;14.23;5.78;;;5.00;99.90;;;4.20;100.00;98047.59;5043568;28;20156;-67
2022/02/10 05:39:07;;;;;;;17.67;5.95;;;5.10;99.90;;;4.28;100.00;98050.91;5044133;28;20171;-67
2022/02/10 06:50:00;;;;;;;16.10;6.32;;;5.80;99.90;;;4.92;100.00;98045.94;5042191;28;20128;-67
2022/02/10 06:52:38;;;;;;;13.75;6.13;;;5.80;99.90;;;4.85;100.00;98044.31;5036096;28;20060;-67
2022/02/10 06:55:28;;;;;;;15.25;6.13;;;5.80;99.90;;;4.83;100.00;98054.59;5042281;28;20129;-67
2022/02/10 06:58:27;;;;;;;11.23;4.65;;;5.90;99.90;;;4.86;100.00;98059.75;5039912;28;20164;-67
2022/02/10 07:49:27;;;;;;;12.32;5.65;;;6.00;99.90;;;5.05;100.00;98075.78;5041124;28;20049;-66
2022/02/10 07:54:43;;;;;;;13.15;4.70;;;6.10;99.90;;;5.12;100.00;98100.56;5037859;28;20059;-67
2022/02/10 07:57:22;;;;;;;12.50;5.57;;;6.00;99.90;;;5.08;100.00;98092.91;5039978;28;20240;-67
2022/02/10 08:26:01;;;;;;;14.82;5.50;;;6.00;99.90;;;4.98;100.00;98105.88;5038491;28;20132;-67
2022/02/10 08:57:52;;;;;;;19.27;8.30;;;5.80;99.90;;;4.69;100.00;98179.94;5040144;28;20426;-67
2022/02/10 09:53:17;;;;;;;23.35;10.00;;;5.40;99.90;;;4.39;100.00;98256.44;5042956;28;20136;-66
2022/02/10 09:58:32;;;;;;;25.67;11.35;;;5.40;99.90;;;4.43;100.00;98267.56;5034744;28;20088;-66
2022/02/10 10:03:28;;;;;;;19.75;11.65;;;5.30;99.90;;;4.28;100.00;98307.06;5042034;28;20490;-66
2022/02/10 10:06:17;;;;;;;23.15;11.07;;;5.30;99.90;;;4.36;100.00;98301.00;5040000;28;20458;-66
2022/02/10 10:09:06;;;;;;;26.20;9.98;;;5.30;99.90;;;4.30;100.00;98298.47;5043947;28;20592;-66
2022/02/10 10:12:09;;;;;;;27.35;12.95;;;5.30;99.90;;;4.36;100.00;98303.59;5039603;28;20104;-66
2022/02/10 10:14:52;;;;;;;23.75;10.90;;;5.30;99.90;;;4.15;100.00;98311.41;5039440;28;20520;-66
2022/02/10 10:51:09;;;;;;;23.05;12.02;;;5.20;99.90;;;4.33;100.00;98337.03;5040602;28;20132;-67
2022/02/10 10:54:04;;;;;;;27.35;12.88;;;5.10;99.90;;;4.12;100.00;98331.97;5042821;28;20102;-67
2022/02/10 10:56:36;;;;;;;21.10;12.48;;;5.20;99.90;;;4.19;100.00;98333.66;5034764;28;20042;-67
2022/02/10 11:43:46;;;;;;;24.23;12.48;;;5.30;99.90;;;4.48;100.00;98296.66;5042150;28;20094;-67
2022/02/10 13:03:05;;;;;;;16.88;9.48;;;5.40;99.90;;;4.74;100.00;98294.72;5039430;28;20045;-67
2022/02/10 13:49:39;;;;;;;17.05;7.60;;;5.60;99.90;;;-146.41;100.00;57768.22;5040674;28;20041;-67
2022/02/10 14:16:31;;;;;;;22.52;12.60;;;5.80;99.90;;;-146.41;100.00;57768.22;5039157;28;20088;-67
2022/02/10 14:19:11;;;;;;;21.80;11.65;;;5.80;99.90;;;-146.41;100.00;57768.22;5039865;28;20135;-66
2022/02/10 14:21:46;;;;;;;26.50;14.30;;;5.70;99.90;;;-146.41;100.00;57768.22;5041946;28;20136;-66
2022/02/10 14:27:01;;;;;;;27.67;14.40;;;5.60;99.90;;;-146.41;100.00;57768.22;5051851;28;20081;-66
2022/02/10 14:29:29;;;;;;;35.50;18.42;;;5.60;99.90;;;-146.41;100.00;57768.22;5040836;28;20796;-66
2022/02/10 14:31:56;;;;;;;30.40;16.90;;;5.50;99.90;;;-146.41;100.00;57768.22;5045694;28;20098;-66
2022/02/10 14:34:26;;;;;;;28.50;16.67;;;5.40;99.90;;;-146.41;100.00;57768.22;5040987;28;20155;-67
2022/02/10 14:37:13;;;;;;;33.08;17.40;;;5.40;99.90;;;-146.41;100.00;57768.22;5041208;28;20099;-67
2022/02/10 15:21:21;;;;;;;30.00;15.45;;;5.20;99.90;;;-146.41;100.00;57768.22;4987820;28;20061;-67
2022/02/10 15:51:27;;;;;;;29.45;17.95;;;5.20;99.90;;;-146.41;100.00;57768.22;4998812;28;20089;-67
2022/02/10 16:18:30;;;;;;;24.25;13.43;;;5.20;99.90;;;-146.41;100.00;57768.22;5037905;28;20045;-67
2022/02/10 16:21:00;;;;;;;26.42;13.88;;;5.20;99.90;;;-146.41;100.00;57768.22;5038069;28;20423;-67
2022/02/10 16:23:31;;;;;;;22.75;11.77;;;5.20;99.90;;;-146.41;100.00;57768.22;5039250;28;20056;-66
2022/02/10 16:26:21;;;;;;;21.98;13.25;;;5.20;99.90;;;-146.41;100.00;57768.22;5036450;28;20049;-66
2022/02/10 16:28:48;;;;;;;21.98;12.30;;;5.30;99.90;;;-146.41;100.00;57768.22;5028476;28;20124;-67
2022/02/10 16:31:16;;;;;;;17.77;10.82;;;5.30;99.90;;;-146.41;100.00;57768.22;5033271;28;20140;-67
2022/02/10 16:33:43;;;;;;;19.17;11.95;;;5.20;99.90;;;-146.41;100.00;57768.22;5039981;28;20049;-67
2022/02/10 16:36:16;;;;;;;21.20;12.88;;;5.20;99.90;;;-146.41;100.00;57768.22;5038355;28;20110;-67
2022/02/10 16:38:46;;;;;;;103.72;48.70;;;5.20;99.90;;;-146.41;100.00;57768.22;5047369;28;20049;-67
2022/02/10 16:41:14;;;;;;;19.83;11.60;;;5.20;99.90;;;-146.41;100.00;57768.22;5038470;28;20051;-67
2022/02/10 16:43:42;;;;;;;21.23;12.40;;;5.20;99.90;;;-146.41;100.00;57768.22;5038729;28;20064;-66
2022/02/10 16:46:14;;;;;;;19.38;11.65;;;5.20;99.90;;;-146.41;100.00;57768.22;5041002;28;20058;-66
2022/02/10 16:48:46;;;;;;;20.83;12.82;;;5.20;99.90;;;-146.41;100.00;57768.22;5043187;28;20048;-66
2022/02/10 16:51:20;;;;;;;22.33;13.27;;;5.10;99.90;;;-146.41;100.00;57768.22;5042021;28;20068;-67
2022/02/10 16:54:00;;;;;;;18.90;13.02;;;5.20;99.90;;;-146.41;100.00;57768.22;5043116;28;20123;-66
2022/02/10 16:56:35;;;;;;;24.77;14.05;;;5.20;99.90;;;-146.41;100.00;57768.22;5047085;28;20049;-67
2022/02/10 17:02:09;;;;;;;23.02;16.65;;;5.20;99.90;;;-146.41;100.00;57768.22;5044001;28;20037;-67
2022/02/10 17:29:12;;;;;;;26.75;19.52;;;5.20;99.90;;;-146.41;100.00;57768.22;5041185;28;20136;-67
2022/02/10 17:32:18;;;;;;;27.50;17.77;;;5.20;99.90;;;-146.41;100.00;57768.22;5042421;28;20080;-67
2022/02/10 17:43:18;;;;;;;39.22;21.13;;;5.20;99.90;;;-146.41;100.00;57768.22;5043316;28;20567;-67
2022/02/10 17:53:29;;;;;;;21.27;13.07;;;5.10;99.90;;;-146.41;100.00;57768.22;5040504;28;20054;-67
2022/02/10 17:55:56;;;;;;;24.90;15.27;;;5.10;99.90;;;-146.41;100.00;57768.22;5042565;28;20618;-68
2022/02/10 17:58:24;;;;;;;35.03;18.48;;;5.10;99.90;;;-146.41;100.00;57768.22;5043702;28;20076;-67
2022/02/10 18:00:53;;;;;;;27.08;14.27;;;5.10;99.90;;;-146.41;100.00;57768.22;5038727;28;20468;-67
2022/02/10 18:03:21;;;;;;;24.65;12.05;;;5.10;99.90;;;-146.41;100.00;57768.22;5054727;28;20497;-67
2022/02/10 18:08:21;;;;;;;25.30;13.00;;;5.10;99.90;;;-146.41;100.00;57768.22;5039775;28;20046;-67
2022/02/10 18:14:04;;;;;;;27.63;14.68;;;5.10;99.90;;;-146.41;100.00;57768.22;4975403;28;20050;-67
2022/02/10 18:19:39;;;;;;;31.58;14.48;;;5.10;99.90;;;-146.41;100.00;57768.22;5016149;28;20044;-67
2022/02/10 19:07:50;;;;;;;24.50;14.10;;;5.00;99.90;;;-146.41;100.00;57768.22;5038914;28;20151;-66
2022/02/10 19:10:21;;;;;;;23.92;13.48;;;4.90;99.90;;;-146.41;100.00;57768.22;5042390;28;20421;-66
2022/02/10 19:12:53;;;;;;;20.95;12.27;;;4.90;99.90;;;-146.41;100.00;57768.22;5039140;28;20069;-65
2022/02/10 19:15:32;;;;;;;23.10;13.25;;;5.00;99.90;;;-146.41;100.00;57768.22;5038190;28;20128;-66
2022/02/10 19:18:05;;;;;;;24.23;14.18;;;5.00;99.90;;;-146.41;100.00;57768.22;5041254;28;20095;-66
2022/02/10 19:20:34;;;;;;;26.48;14.52;;;5.00;99.90;;;-146.41;100.00;57768.22;5042550;28;20073;-66
2022/02/10 19:23:04;;;;;;;23.38;13.52;;;5.00;99.90;;;-146.41;100.00;57768.22;5041367;28;20073;-66
2022/02/10 19:25:34;;;;;;;30.88;14.95;;;5.00;99.90;;;-146.41;100.00;57768.22;5041010;28;20084;-66
2022/02/10 19:28:00;;;;;;;29.48;15.50;;;5.10;99.90;;;-146.41;100.00;57768.22;5040630;28;20048;-66
2022/02/10 19:30:31;;;;;;;24.27;13.25;;;5.00;99.90;;;-146.41;100.00;57768.22;5036494;28;20049;-66
2022/02/10 19:33:01;;;;;;;26.38;14.68;;;5.00;99.90;;;-146.41;100.00;57768.22;5039354;28;20087;-66
2022/02/10 19:35:33;;;;;;;22.33;12.60;;;5.00;99.90;;;-146.41;100.00;57768.22;5052243;28;20052;-66
2022/02/10 19:38:04;;;;;;;23.67;13.43;;;5.00;99.90;;;-146.41;100.00;57768.22;5041181;28;20600;-66
2022/02/10 19:40:36;;;;;;;25.33;13.88;;;4.90;99.90;;;-146.41;100.00;57768.22;5038774;28;20456;-66
2022/02/10 19:43:05;;;;;;;27.80;13.57;;;5.00;99.90;;;-146.41;100.00;57768.22;5041475;28;20072;-66
2022/02/10 19:45:33;;;;;;;23.65;13.40;;;5.00;99.90;;;-146.41;100.00;57768.22;5037581;28;20056;-66
2022/02/10 19:48:00;;;;;;;22.20;13.13;;;5.00;99.90;;;-146.41;100.00;57768.22;5041684;28;20114;-66
2022/02/10 19:50:30;;;;;;;23.67;13.13;;;5.00;99.90;;;-146.41;100.00;57768.22;5039518;28;20067;-66
2022/02/10 19:53:01;;;;;;;24.15;13.38;;;4.90;99.90;;;-146.41;100.00;57768.22;5039502;28;20067;-67
2022/02/10 19:55:32;;;;;;;21.00;12.02;;;5.00;99.90;;;-146.41;100.00;57768.22;5038139;28;20080;-66
2022/02/10 19:58:05;;;;;;;26.13;12.80;;;5.00;99.90;;;-146.41;100.00;57768.22;5039684;28;20061;-67
2022/02/10 20:00:39;;;;;;;20.42;12.13;;;5.00;99.90;;;-146.41;100.00;57768.22;5040791;28;20136;-67
2022/02/10 20:03:19;;;;;;;22.88;12.88;;;5.00;99.90;;;-146.41;100.00;57768.22;5039411;28;20417;-66
2022/02/10 20:05:49;;;;;;;23.13;12.80;;;5.00;99.90;;;-146.41;100.00;57768.22;5040472;28;20578;-66
2022/02/10 20:08:22;;;;;;;26.42;12.52;;;5.00;99.90;;;-146.41;100.00;57768.22;5042338;28;20594;-66
2022/02/10 20:10:54;;;;;;;23.23;12.52;;;5.00;99.90;;;-146.41;100.00;57768.22;5042115;28;20102;-66
2022/02/10 20:13:29;;;;;;;24.63;12.88;;;5.00;99.90;;;-146.41;100.00;57768.22;5039042;28;20066;-67
2022/02/10 20:16:00;;;;;;;23.55;12.50;;;4.90;99.90;;;-146.41;100.00;57768.22;5023542;28;20052;-66
2022/02/10 20:18:27;;;;;;;25.67;11.70;;;5.00;99.90;;;-146.41;100.00;57768.22;5043388;28;20567;-66
2022/02/10 20:20:56;;;;;;;20.42;11.40;;;5.00;99.90;;;-146.41;100.00;57768.22;5042672;28;20076;-66
2022/02/10 20:23:25;;;;;;;21.13;12.45;;;4.90;99.90;;;-146.41;100.00;57768.22;5043881;28;20062;-66
2022/02/10 20:26:13;;;;;;;23.15;12.52;;;5.00;99.90;;;-146.41;100.00;57768.22;5042968;28;20080;-66
2022/02/10 20:28:41;;;;;;;29.75;13.40;;;5.00;99.90;;;-146.41;100.00;57768.22;5044875;28;20118;-66
2022/02/10 20:31:09;;;;;;;25.25;11.90;;;4.90;99.90;;;-146.41;100.00;57768.22;5046053;28;20124;-66
2022/02/10 20:33:36;;;;;;;21.25;12.50;;;4.90;99.90;;;-146.41;100.00;57768.22;5047669;28;20069;-66
2022/02/10 20:36:05;;;;;;;23.25;12.48;;;4.90;99.90;;;-146.41;100.00;57768.22;5045063;28;20136;-67
2022/02/10 20:38:39;;;;;;;23.17;12.57;;;4.90;99.90;;;-146.41;100.00;57768.22;5043323;28;20131;-66
2022/02/10 20:41:11;;;;;;;25.77;13.80;;;4.90;99.90;;;-146.41;100.00;57768.22;5039194;28;20099;-66
2022/02/10 20:43:39;;;;;;;22.27;12.40;;;4.90;99.90;;;-146.41;100.00;57768.22;5040844;28;20129;-66
2022/02/10 20:46:09;;;;;;;20.88;11.85;;;4.90;99.90;;;-146.41;100.00;57768.22;5042203;28;20398;-66
2022/02/10 20:48:38;;;;;;;23.63;13.20;;;4.80;99.90;;;-146.41;100.00;57768.22;5043077;28;20051;-66
2022/02/10 20:51:10;;;;;;;25.60;13.75;;;4.90;99.90;;;-146.41;100.00;57768.22;5041013;28;20103;-66
2022/02/10 20:53:40;;;;;;;22.15;12.40;;;4.80;99.90;;;-146.41;100.00;57768.22;5041062;28;20476;-66
2022/02/10 20:56:10;;;;;;;25.00;13.48;;;4.80;99.90;;;-146.41;100.00;57768.22;5043540;28;20073;-66
2022/02/10 20:58:40;;;;;;;25.20;13.40;;;4.80;99.90;;;-146.41;100.00;57768.22;5042488;28;20048;-66
2022/02/10 21:01:11;;;;;;;28.02;15.07;;;4.80;99.90;;;-146.41;100.00;57768.22;5042578;28;20080;-66
2022/02/10 21:03:38;;;;;;;26.95;13.43;;;4.80;99.90;;;-146.41;100.00;57768.22;5046477;28;20041;-66
2022/02/10 21:06:18;;;;;;;25.88;13.50;;;4.90;99.90;;;-146.41;100.00;57768.22;5046727;28;20044;-67
2022/02/10 21:08:55;;;;;;;21.10;13.20;;;4.90;99.90;;;-146.41;100.00;57768.22;5042127;28;20049;-67
2022/02/10 21:11:25;;;;;;;26.35;14.52;;;4.80;99.90;;;-146.41;100.00;57768.22;5043054;28;20077;-67
2022/02/10 21:13:52;;;;;;;24.55;13.02;;;4.80;99.90;;;-146.41;100.00;57768.22;5042840;28;20064;-67
2022/02/10 21:16:19;;;;;;;24.63;12.43;;;4.90;99.90;;;-146.41;100.00;57768.22;5045614;28;20064;-66
2022/02/10 21:18:47;;;;;;;22.70;12.07;;;4.90;99.90;;;-146.41;100.00;57768.22;5039577;28;20045;-66
2022/02/10 21:21:17;;;;;;;22.30;12.45;;;4.90;99.90;;;-146.41;100.00;57768.22;5044232;28;20061;-66
2022/02/10 21:23:56;;;;;;;23.48;13.77;;;4.90;99.90;;;-146.41;100.00;57768.22;5037953;28;20049;-66
2022/02/10 21:26:29;;;;;;;23.13;12.18;;;4.90;99.90;;;-146.41;100.00;57768.22;5045130;28;20042;-66
2022/02/10 21:29:02;;;;;;;22.08;13.38;;;4.90;99.90;;;-146.41;100.00;57768.22;5043157;28;20053;-66
2022/02/10 21:31:29;;;;;;;24.25;13.30;;;4.90;99.90;;;-146.41;100.00;57768.22;5045018;28;20495;-66
2022/02/10 21:34:10;;;;;;;22.45;12.70;;;4.80;99.90;;;-146.41;100.00;57768.22;5038592;28;20037;-66
2022/02/10 21:37:02;;;;;;;28.27;14.82;;;4.80;99.90;;;-146.41;100.00;57768.22;5039772;28;20167;-66
2022/02/10 22:05:05;;;;;;;25.02;12.88;;;4.80;99.90;;;-146.41;100.00;57768.22;5044487;28;20133;-67
2022/02/10 22:07:12;;;;;;;24.17;13.60;;;4.90;99.90;;;-146.41;100.00;57768.22;5037581;28;20049;-66
2022/02/10 22:20:07;;;;;;;20.90;11.77;;;4.90;99.90;;;-146.41;100.00;57768.22;5040507;28;20127;-66
2022/02/10 22:22:48;;;;;;;16.08;9.88;;;5.00;99.90;;;-146.41;100.00;57768.22;5041180;28;20473;-67
2022/02/10 22:25:15;;;;;;;22.38;11.25;;;4.90;99.90;;;-146.41;100.00;57768.22;5042077;28;20132;-67
2022/02/10 22:27:47;;;;;;;20.33;10.43;;;5.00;99.90;;;-146.41;100.00;57768.22;5043452;28;20064;-66
2022/02/10 22:30:22;;;;;;;20.73;11.63;;;5.00;99.90;;;-146.41;100.00;57768.22;5043132;28;20082;-66
2022/02/10 22:33:09;;;;;;;26.10;11.50;;;4.90;99.90;;;-146.41;100.00;57768.22;5043766;28;20072;-66
2022/02/10 22:35:36;;;;;;;21.70;12.05;;;4.90;99.90;;;-146.41;100.00;57768.22;5040829;28;20143;-66
2022/02/10 22:38:03;;;;;;;19.63;11.20;;;4.80;99.90;;;-146.41;100.00;57768.22;5043661;28;20044;-67
2022/02/10 22:43:23;;;;;;;18.08;9.68;;;4.80;99.90;;;-146.41;100.00;57768.22;5045920;28;20084;-67
2022/02/10 22:45:49;;;;;;;20.75;10.95;;;4.70;99.90;;;-146.41;100.00;57768.22;5041999;28;20529;-67
2022/02/10 22:48:17;;;;;;;25.63;13.48;;;4.70;99.90;;;-146.41;100.00;57768.22;5043712;28;20111;-67
2022/02/10 22:50:44;;;;;;;24.90;12.80;;;4.70;99.90;;;-146.41;100.00;57768.22;5042428;28;20389;-67
2022/02/10 22:53:11;;;;;;;21.55;13.00;;;4.70;99.90;;;-146.41;100.00;57768.22;5043178;28;20683;-66
2022/02/10 22:55:41;;;;;;;21.95;11.02;;;4.70;99.90;;;-146.41;100.00;57768.22;5040876;28;20072;-67
2022/02/10 22:58:08;;;;;;;27.05;14.20;;;4.70;99.90;;;-146.41;100.00;57768.22;5041814;28;20520;-67
2022/02/10 23:00:48;;;;;;;22.00;13.13;;;4.70;99.90;;;-146.41;100.00;57768.22;5042598;28;20049;-68
2022/02/10 23:03:21;;;;;;;19.75;12.10;;;4.70;99.90;;;-146.41;100.00;57768.22;5039182;28;20140;-67
2022/02/10 23:05:49;;;;;;;20.75;12.07;;;4.70;99.90;;;-146.41;100.00;57768.22;5039712;28;20080;-67
2022/02/10 23:08:17;;;;;;;21.50;12.77;;;4.70;99.90;;;-146.41;100.00;57768.22;5039168;28;20056;-67
2022/02/10 23:13:21;;;;;;;20.65;13.35;;;4.60;99.90;;;-146.41;100.00;57768.22;5039199;28;20049;-68
2022/02/10 23:15:50;;;;;;;21.17;12.55;;;4.60;99.90;;;-146.41;100.00;57768.22;5044565;28;20176;-69
2022/02/10 23:18:30;;;;;;;23.40;12.00;;;4.60;99.90;;;-146.41;100.00;57768.22;5038217;28;20362;-68
2022/02/10 23:21:01;;;;;;;20.10;11.77;;;4.60;99.90;;;-146.41;100.00;57768.22;5041655;28;20128;-68
2022/02/10 23:23:30;;;;;;;20.00;12.20;;;4.60;99.90;;;-146.41;100.00;57768.22;5037475;28;20048;-68
2022/02/10 23:26:00;;;;;;;24.33;12.05;;;4.60;99.90;;;-146.41;100.00;57768.22;5041218;28;20049;-68
2022/02/10 23:28:35;;;;;;;23.05;13.05;;;4.50;99.90;;;-146.41;100.00;57768.22;5038813;28;20175;-68
2022/02/10 23:31:05;;;;;;;21.10;12.27;;;4.50;99.90;;;-146.41;100.00;57768.22;5041494;28;20124;-68
2022/02/10 23:33:36;;;;;;;24.88;13.18;;;4.40;99.90;;;-146.41;100.00;57768.22;5058983;28;20041;-68
2022/02/10 23:38:47;;;;;;;20.23;12.25;;;4.40;99.90;;;-146.41;100.00;57768.22;5039669;28;20853;-68
2022/02/10 23:44:12;;;;;;;19.63;12.40;;;4.40;99.90;;;-146.41;100.00;57768.22;5037797;28;20103;-68
2022/02/10 23:46:41;;;;;;;26.50;13.88;;;4.40;99.90;;;-146.41;100.00;57768.22;5038561;28;20579;-68
2022/02/10 23:49:09;;;;;;;27.65;13.13;;;4.40;99.90;;;-146.41;100.00;57768.22;5041213;28;20099;-68
2022/02/10 23:51:46;;;;;;;23.02;13.38;;;4.40;99.90;;;-146.41;100.00;57768.22;5037064;28;20041;-68
2022/02/10 23:54:13;;;;;;;19.80;11.80;;;4.40;99.90;;;-146.41;100.00;57768.22;5040395;28;20144;-68
2022/02/10 23:56:49;;;;;;;21.65;12.52;;;4.40;99.90;;;-146.41;100.00;57768.22;5038444;28;20072;-68
2022/02/10 23:59:28;;;;;;;21.95;12.02;;;4.40;99.90;;;-146.41;100.00;57768.22;5037906;28;20049;-67
